Time;durP1;ratioP1;P1;durP2;ratioP2;P2;SDS_P1;SDS_P2;PMS_P1;PMS_P2;Temp;Humidity;BMP_temperature;BMP_pressure;BME280_temperature;BME280_humidity;BME280_pressure;Samples;Min_cycle;Max_cycle;Signal;HPM_P1;HPM_P2
2021/10/15 04:46:18;;;;;;;8.02;1.85;;;17.30;73.00;;;;;;4768718;30;20078;-71
2021/10/15 04:48:44;;;;;;;15.10;7.38;;;17.30;72.90;;;;;;4774256;30;20048;-71
2021/10/15 04:51:09;;;;;;;14.73;5.45;;;17.40;73.20;;;;;;4774369;30;20482;-70
2021/10/15 04:53:35;;;;;;;10.15;3.10;;;17.30;73.50;;;;;;4771123;30;20513;-70
2021/10/15 04:56:01;;;;;;;7.32;3.88;;;17.40;73.40;;;;;;4774512;30;20087;-74
2021/10/15 04:58:26;;;;;;;10.95;3.47;;;17.50;73.20;;;;;;4774012;30;20097;-73
2021/10/15 05:00:52;;;;;;;8.80;3.15;;;17.60;72.60;;;;;;4772932;30;20459;-71
2021/10/15 05:03:18;;;;;;;9.52;3.38;;;17.60;72.20;;;;;;4773586;30;20060;-73
2021/10/15 05:05:43;;;;;;;9.02;2.90;;;17.70;71.90;;;;;;4774275;30;20142;-70
2021/10/15 05:08:11;;;;;;;10.15;3.15;;;17.80;72.40;;;;;;4774871;30;20051;-69
2021/10/15 05:10:41;;;;;;;9.10;3.00;;;17.80;71.70;;;;;;4774237;30;20075;-71
2021/10/15 05:13:07;;;;;;;12.23;3.22;;;18.00;71.80;;;;;;4774248;30;20055;-69
2021/10/15 05:15:33;;;;;;;11.55;3.50;;;18.10;71.80;;;;;;4774002;30;20047;-70
2021/10/15 05:17:59;;;;;;;10.07;3.33;;;18.20;71.90;;;;;;4773816;30;20043;-71
2021/10/15 05:20:25;;;;;;;10.15;2.92;;;18.20;71.90;;;;;;4774654;30;20060;-70
2021/10/15 05:22:50;;;;;;;11.05;3.40;;;18.30;71.80;;;;;;4774036;30;20472;-71
2021/10/15 05:25:16;;;;;;;9.55;2.80;;;18.30;71.80;;;;;;4774009;30;20062;-70
2021/10/15 05:27:42;;;;;;;11.27;2.88;;;18.40;72.00;;;;;;4773765;30;20107;-70
2021/10/15 05:30:10;;;;;;;10.35;3.47;;;18.40;72.00;;;;;;4774126;30;20059;-70
2021/10/15 05:32:37;;;;;;;9.13;2.40;;;18.40;72.00;;;;;;4774272;30;20039;-71
2021/10/15 05:35:04;;;;;;;7.57;2.58;;;18.40;72.20;;;;;;4773255;30;20062;-71
2021/10/15 05:37:29;;;;;;;8.88;2.72;;;18.40;72.30;;;;;;4773728;30;20059;-71
2021/10/15 05:39:55;;;;;;;10.13;2.58;;;18.40;72.40;;;;;;4773728;30;20056;-70
2021/10/15 05:42:21;;;;;;;9.82;2.63;;;18.30;72.50;;;;;;4773942;30;20166;-71
2021/10/15 05:44:47;;;;;;;11.48;3.22;;;18.30;72.60;;;;;;4791049;30;20534;-72
2021/10/15 05:47:13;;;;;;;13.10;2.67;;;18.30;72.70;;;;;;4791189;30;20074;-71
2021/10/15 05:49:40;;;;;;;10.80;2.15;;;18.30;72.90;;;;;;4790644;30;20055;-70
2021/10/15 05:52:16;;;;;;;13.68;2.38;;;18.30;73.00;;;;;;4790670;30;20061;-71
2021/10/15 05:59:43;;;;;;;8.93;2.47;;;18.30;73.30;;;;;;4791006;30;20067;-70
2021/10/15 06:02:09;;;;;;;6.82;2.55;;;18.20;73.20;;;;;;4790866;30;20063;-72
2021/10/15 06:15:10;;;;;;;12.35;2.90;;;18.20;74.20;;;;;;4753170;30;20148;-72
2021/10/15 06:17:42;;;;;;;14.15;2.58;;;18.20;74.10;;;;;;4753104;30;20063;-72
2021/10/15 06:20:10;;;;;;;16.88;3.33;;;18.10;72.00;;;;;;4756793;30;20382;-75
2021/10/15 06:22:36;;;;;;;16.17;3.60;;;18.00;73.20;;;;;;4790764;30;20066;-73
2021/10/15 14:47:37;;;;;;;8.68;1.67;;;17.60;71.30;;;;;;5455469;24;20470;-69
2021/10/15 14:50:04;;;;;;;5.70;1.13;;;17.60;70.70;;;;;;4790339;29;20059;-70
2021/10/15 14:52:30;;;;;;;9.48;1.25;;;17.60;70.50;;;;;;4792270;29;20069;-69
2021/10/15 14:54:56;;;;;;;7.63;1.20;;;17.60;70.40;;;;;;4799732;29;20054;-73
2021/10/15 14:57:21;;;;;;;8.73;1.58;;;17.60;70.80;;;;;;4774873;29;20136;-72
2021/10/15 14:59:47;;;;;;;11.75;1.33;;;17.60;70.90;;;;;;4756574;30;20051;-72
2021/10/15 15:02:14;;;;;;;10.27;1.98;;;17.50;70.90;;;;;;4772883;29;20047;-74
2021/10/15 15:04:42;;;;;;;5.05;1.08;;;17.60;71.40;;;;;;4781815;30;20113;-74
2021/10/15 15:07:08;;;;;;;7.22;2.08;;;17.60;72.00;;;;;;4772731;29;20130;-71
2021/10/15 15:09:34;;;;;;;8.30;1.88;;;17.60;72.90;;;;;;4773999;29;20045;-72
2021/10/15 15:12:00;;;;;;;7.85;1.75;;;17.70;73.30;;;;;;4781919;29;20058;-72
2021/10/15 15:14:26;;;;;;;11.85;1.67;;;17.70;74.00;;;;;;4784584;29;20046;-71
2021/10/15 15:16:52;;;;;;;10.05;1.83;;;17.70;73.80;;;;;;4789995;29;20078;-72
2021/10/15 15:19:17;;;;;;;8.68;1.70;;;17.70;74.00;;;;;;4789921;30;20182;-72
2021/10/15 15:21:44;;;;;;;7.88;2.10;;;17.70;74.10;;;;;;4789213;29;20052;-72
2021/10/15 15:24:11;;;;;;;5.32;1.45;;;17.70;73.80;;;;;;4788527;30;20126;-74
2021/10/15 15:26:38;;;;;;;10.80;1.90;;;17.70;73.80;;;;;;4773789;30;20051;-71
2021/10/15 15:29:04;;;;;;;9.63;2.00;;;17.70;73.80;;;;;;4773463;30;20126;-74
2021/10/15 15:31:29;;;;;;;7.22;1.77;;;17.70;74.60;;;;;;4788997;30;20538;-74
2021/10/15 15:33:55;;;;;;;11.02;2.63;;;17.70;74.20;;;;;;4790373;30;20367;-73
2021/10/15 15:36:21;;;;;;;7.10;1.70;;;17.80;74.00;;;;;;4774292;30;20047;-73
2021/10/15 15:38:48;;;;;;;13.15;1.95;;;17.70;73.50;;;;;;4789576;30;20130;-73
2021/10/15 15:41:14;;;;;;;12.77;3.13;;;17.80;71.60;;;;;;4774066;30;20059;-72
2021/10/15 15:43:41;;;;;;;9.63;3.00;;;17.80;70.80;;;;;;4789920;30;20054;-74
2021/10/15 15:46:10;;;;;;;13.48;2.75;;;17.70;69.00;;;;;;4789759;30;20074;-73
2021/10/15 15:48:36;;;;;;;11.50;2.10;;;17.70;67.20;;;;;;4788751;30;20079;-73
2021/10/15 15:51:04;;;;;;;14.45;3.08;;;17.70;65.90;;;;;;4773312;30;20066;-73
2021/10/15 15:53:31;;;;;;;9.80;2.15;;;17.60;64.90;;;;;;4789437;30;20059;-71
2021/10/15 15:55:57;;;;;;;13.00;3.33;;;17.60;64.10;;;;;;4789673;30;20130;-70
2021/10/15 15:58:24;;;;;;;11.52;2.85;;;17.60;63.70;;;;;;4789094;30;20530;-74
2021/10/15 16:00:50;;;;;;;12.00;4.03;;;17.60;63.70;;;;;;4788721;30;20494;-70
2021/10/15 16:03:16;;;;;;;11.68;2.78;;;17.60;63.40;;;;;;4785682;29;20129;-70
2021/10/15 16:05:43;;;;;;;13.35;3.15;;;17.50;62.60;;;;;;4774494;29;20506;-72
2021/10/15 16:08:09;;;;;;;10.65;2.20;;;17.50;61.70;;;;;;4795176;29;20098;-75
2021/10/15 16:10:36;;;;;;;9.32;2.53;;;17.50;61.50;;;;;;4795367;29;20047;-74
2021/10/15 16:13:02;;;;;;;9.80;1.88;;;17.40;61.10;;;;;;4795059;29;20133;-74
2021/10/15 16:15:28;;;;;;;8.75;2.22;;;17.40;60.80;;;;;;4810760;29;20093;-71
2021/10/15 16:17:54;;;;;;;11.55;2.17;;;17.30;60.90;;;;;;4799536;29;20058;-74
2021/10/15 16:20:20;;;;;;;8.23;2.03;;;17.30;61.30;;;;;;4793152;30;20059;-71
2021/10/15 16:22:45;;;;;;;9.82;2.17;;;17.30;62.10;;;;;;4793051;30;20088;-72
2021/10/15 16:25:11;;;;;;;8.88;1.85;;;17.30;62.80;;;;;;4792793;30;20130;-71
2021/10/15 16:27:38;;;;;;;8.50;2.17;;;17.40;63.50;;;;;;4793120;30;20047;-71
2021/10/15 16:30:06;;;;;;;11.73;3.00;;;17.40;64.10;;;;;;4793132;30;20062;-71
2021/10/15 16:32:33;;;;;;;8.70;1.60;;;17.40;64.50;;;;;;4793297;30;20093;-71
2021/10/15 16:34:59;;;;;;;9.13;2.13;;;17.40;65.00;;;;;;4792685;30;20054;-74
2021/10/15 16:37:25;;;;;;;7.60;2.00;;;17.40;65.40;;;;;;4784001;30;20051;-71
2021/10/15 16:39:50;;;;;;;8.63;2.17;;;17.40;65.70;;;;;;4775218;30;20089;-70
2021/10/15 16:42:16;;;;;;;9.70;1.90;;;17.40;66.10;;;;;;4775008;30;20478;-71
2021/10/15 16:44:42;;;;;;;13.45;2.22;;;17.40;66.50;;;;;;4774927;30;20064;-71
2021/10/15 16:47:08;;;;;;;8.98;1.90;;;17.40;66.80;;;;;;4774615;30;20055;-70
2021/10/15 16:49:34;;;;;;;11.52;2.42;;;17.40;67.10;;;;;;4775278;30;20095;-70
2021/10/15 16:52:00;;;;;;;10.20;2.20;;;17.40;67.40;;;;;;4799210;29;20430;-71
2021/10/15 16:54:25;;;;;;;9.18;2.08;;;17.40;67.80;;;;;;4810125;29;20146;-70
2021/10/15 16:56:51;;;;;;;8.80;1.80;;;17.40;67.80;;;;;;4805307;29;20066;-71
2021/10/15 16:59:19;;;;;;;9.85;1.85;;;17.40;67.80;;;;;;4791450;30;20077;-71
2021/10/15 17:01:45;;;;;;;8.85;1.77;;;17.40;67.80;;;;;;4792449;30;20434;-71
2021/10/15 17:04:11;;;;;;;7.60;1.85;;;17.40;67.80;;;;;;4792237;30;20052;-71
2021/10/15 17:06:36;;;;;;;8.30;1.70;;;17.40;67.80;;;;;;4792456;30;20207;-71
2021/10/15 17:09:02;;;;;;;8.65;1.95;;;17.40;67.90;;;;;;4792389;30;20134;-71
2021/10/15 17:11:28;;;;;;;4.10;1.20;;;17.40;67.90;;;;;;4792307;30;20052;-71
2021/10/15 17:13:54;;;;;;;10.77;1.90;;;17.40;68.00;;;;;;4791479;29;20074;-71
2021/10/15 17:16:20;;;;;;;8.73;1.83;;;17.40;68.00;;;;;;4792309;30;20048;-70
2021/10/15 17:18:45;;;;;;;7.63;1.40;;;17.40;68.10;;;;;;4791280;30;20455;-71
2021/10/15 17:21:11;;;;;;;8.32;1.65;;;17.40;68.10;;;;;;4789856;30;20055;-71
2021/10/15 17:23:37;;;;;;;5.00;1.30;;;17.40;68.20;;;;;;4792530;30;20436;-71
2021/10/15 17:26:03;;;;;;;8.35;1.30;;;17.40;68.00;;;;;;4792135;30;20425;-71
2021/10/15 17:28:28;;;;;;;5.97;1.15;;;17.40;68.10;;;;;;4791875;30;20109;-71
2021/10/15 17:30:54;;;;;;;5.13;1.27;;;17.50;68.80;;;;;;4776252;30;20062;-71
2021/10/15 17:33:20;;;;;;;6.15;1.50;;;17.50;68.20;;;;;;4792140;30;20043;-73
2021/10/15 17:35:45;;;;;;;6.72;1.67;;;17.40;68.30;;;;;;4791685;30;20047;-71
2021/10/15 17:38:12;;;;;;;7.85;1.13;;;17.50;68.40;;;;;;4793572;29;20089;-71
2021/10/15 17:40:38;;;;;;;7.53;1.60;;;17.50;68.20;;;;;;4798676;29;20051;-71
2021/10/15 17:43:05;;;;;;;5.47;1.20;;;17.50;68.40;;;;;;4791476;30;20470;-71
2021/10/15 17:45:31;;;;;;;6.82;1.38;;;17.50;68.60;;;;;;4774129;30;20055;-71
2021/10/15 17:47:57;;;;;;;8.77;1.23;;;17.50;68.70;;;;;;4773769;30;20056;-71
2021/10/15 17:50:23;;;;;;;7.18;1.55;;;17.40;68.80;;;;;;4791000;29;20097;-71
2021/10/15 17:52:48;;;;;;;5.78;1.50;;;17.50;68.80;;;;;;4791681;30;20051;-76
2021/10/15 17:55:14;;;;;;;9.27;1.92;;;17.50;68.60;;;;;;4776538;30;20154;-73
2021/10/15 17:57:41;;;;;;;8.63;2.08;;;17.50;68.00;;;;;;4784082;29;20115;-77
2021/10/15 18:00:13;;;;;;;4.95;1.40;;;17.50;67.30;;;;;;4789445;29;20063;-74
2021/10/15 18:02:40;;;;;;;7.15;1.67;;;17.50;66.70;;;;;;4785843;29;20395;-80
2021/10/15 18:05:06;;;;;;;7.85;1.63;;;17.50;66.20;;;;;;4790804;30;20047;-77
2021/10/15 18:07:32;;;;;;;7.80;1.70;;;17.50;65.60;;;;;;4790485;30;20031;-77
2021/10/15 18:09:58;;;;;;;8.00;1.40;;;17.50;65.10;;;;;;4789110;29;20470;-77
2021/10/15 18:12:24;;;;;;;5.82;1.50;;;17.40;64.50;;;;;;4790182;30;20104;-76
2021/10/15 18:14:52;;;;;;;6.90;1.90;;;17.40;64.20;;;;;;4790133;30;20049;-76
2021/10/15 18:17:18;;;;;;;8.10;1.52;;;17.40;63.80;;;;;;4790496;30;20074;-77
2021/10/15 18:19:44;;;;;;;5.65;1.33;;;17.40;63.40;;;;;;4790438;30;20491;-80
2021/10/15 18:22:11;;;;;;;3.95;1.15;;;17.30;63.20;;;;;;4791393;29;20039;-79
2021/10/15 18:24:36;;;;;;;8.27;1.67;;;17.30;63.10;;;;;;4784851;29;20051;-75
2021/10/15 18:27:02;;;;;;;11.23;1.60;;;17.30;62.80;;;;;;4791767;29;20058;-74
2021/10/15 18:29:28;;;;;;;6.25;1.75;;;17.30;62.70;;;;;;4795924;29;20533;-75
2021/10/15 18:31:54;;;;;;;7.15;1.73;;;17.30;62.30;;;;;;4805480;29;20090;-76
